N417MK KCXO-K3R9
Flight info
| Callsign | N417MK |
|---|---|
| Flight time | 1h 0m |
| Altitude | 10000 |
| Route | JAYJO V306 CWK BLEWE5 |
| Aircraft | BT36/L-BDFGLORY/S |
Departure
| Time | 2026-05-07 02:37 |
|---|---|
| Airport | Conroe-North Houston Regional Airport (KCXO) |
Arrival
| Time | 2026-05-07 03:37 |
|---|---|
| Airport | Lakeway Airpark (K3R9) |
| Time | Latitude | Longitude | Altitude | Speed | Heading |
|---|---|---|---|---|---|
| 2026-05-07 01:47 | 30.34611 | -95.41029 | 242 ft | 0 kts | 234° |
| 2026-05-07 02:33 | 30.34603 | -95.41040 | 242 ft | 4 kts | 215° |
| 2026-05-07 02:33 | 30.34573 | -95.41027 | 242 ft | 6 kts | 118° |
| 2026-05-07 02:33 | 30.34572 | -95.40963 | 242 ft | 9 kts | 81° |
| 2026-05-07 02:34 | 30.34587 | -95.40904 | 242 ft | 9 kts | 63° |
| 2026-05-07 02:34 | 30.34585 | -95.40862 | 242 ft | 7 kts | 132° |
| 2026-05-07 02:34 | 30.34545 | -95.40818 | 242 ft | 7 kts | 129° |
| 2026-05-07 02:34 | 30.34527 | -95.40777 | 242 ft | 2 kts | 18° |
| 2026-05-07 02:35 | 30.34528 | -95.40777 | 242 ft | 0 kts | 0° |
| 2026-05-07 02:35 | 30.34530 | -95.40777 | 242 ft | 3 kts | 20° |
| 2026-05-07 02:35 | 30.34559 | -95.40736 | 240 ft | 8 kts | 48° |
| 2026-05-07 02:36 | 30.34607 | -95.40729 | 240 ft | 13 kts | 336° |
| 2026-05-07 02:36 | 30.34776 | -95.40858 | 242 ft | 56 kts | 326° |
| 2026-05-07 02:36 | 30.35268 | -95.41239 | 370 ft | 100 kts | 325° |
| 2026-05-07 02:36 | 30.35807 | -95.41802 | 726 ft | 111 kts | 301° |
| 2026-05-07 02:37 | 30.35966 | -95.42690 | 1103 ft | 119 kts | 269° |
| 2026-05-07 02:37 | 30.35735 | -95.43637 | 1471 ft | 128 kts | 257° |
| 2026-05-07 02:37 | 30.35493 | -95.44632 | 1885 ft | 127 kts | 264° |
| 2026-05-07 02:37 | 30.35376 | -95.45628 | 2290 ft | 123 kts | 272° |
| 2026-05-07 02:38 | 30.35315 | -95.46627 | 2663 ft | 123 kts | 266° |
| 2026-05-07 02:38 | 30.35217 | -95.47590 | 3115 ft | 119 kts | 263° |
| 2026-05-07 02:38 | 30.35109 | -95.48524 | 3535 ft | 116 kts | 261° |
| 2026-05-07 02:38 | 30.34991 | -95.49442 | 3941 ft | 115 kts | 260° |
| 2026-05-07 02:39 | 30.34872 | -95.50346 | 4341 ft | 113 kts | 263° |
| 2026-05-07 02:39 | 30.34947 | -95.51250 | 4763 ft | 113 kts | 277° |
| 2026-05-07 02:39 | 30.35078 | -95.52141 | 5181 ft | 111 kts | 274° |
| 2026-05-07 02:39 | 30.35155 | -95.53025 | 5591 ft | 110 kts | 270° |
| 2026-05-07 02:40 | 30.35195 | -95.53906 | 5986 ft | 110 kts | 267° |
| 2026-05-07 02:40 | 30.35214 | -95.54795 | 6360 ft | 111 kts | 266° |
| 2026-05-07 02:40 | 30.35221 | -95.55699 | 6709 ft | 113 kts | 266° |
| 2026-05-07 02:40 | 30.35223 | -95.56614 | 7054 ft | 114 kts | 265° |
| 2026-05-07 02:41 | 30.35220 | -95.57538 | 7408 ft | 115 kts | 266° |
| 2026-05-07 02:41 | 30.35213 | -95.58467 | 7772 ft | 116 kts | 266° |
| 2026-05-07 02:41 | 30.35206 | -95.59394 | 8152 ft | 114 kts | 266° |
| 2026-05-07 02:41 | 30.35198 | -95.60306 | 8544 ft | 113 kts | 266° |
| 2026-05-07 02:42 | 30.35190 | -95.61209 | 8938 ft | 111 kts | 266° |
| 2026-05-07 02:42 | 30.35182 | -95.62100 | 9332 ft | 110 kts | 266° |
| 2026-05-07 02:42 | 30.35174 | -95.62975 | 9708 ft | 108 kts | 266° |
| 2026-05-07 02:42 | 30.35166 | -95.63891 | 9818 ft | 125 kts | 267° |
| 2026-05-07 02:43 | 30.35165 | -95.64983 | 9850 ft | 145 kts | 268° |
| 2026-05-07 02:43 | 30.35163 | -95.66206 | 9867 ft | 158 kts | 268° |
| 2026-05-07 02:43 | 30.35154 | -95.67512 | 9870 ft | 164 kts | 268° |
| 2026-05-07 02:43 | 30.35146 | -95.68829 | 9865 ft | 162 kts | 267° |
| 2026-05-07 02:44 | 30.35134 | -95.70119 | 9859 ft | 159 kts | 267° |
| 2026-05-07 02:44 | 30.35121 | -95.71390 | 9857 ft | 156 kts | 268° |
| 2026-05-07 02:44 | 30.35107 | -95.72645 | 9855 ft | 156 kts | 268° |
| 2026-05-07 02:44 | 30.35095 | -95.73895 | 9855 ft | 155 kts | 268° |
| 2026-05-07 02:45 | 30.35083 | -95.75139 | 9859 ft | 155 kts | 268° |
| 2026-05-07 02:45 | 30.35072 | -95.76386 | 9868 ft | 155 kts | 268° |
| 2026-05-07 02:45 | 30.35061 | -95.77641 | 9876 ft | 156 kts | 268° |
| 2026-05-07 02:45 | 30.35050 | -95.78903 | 9823 ft | 156 kts | 268° |
| 2026-05-07 02:46 | 30.35038 | -95.80159 | 9814 ft | 156 kts | 268° |
| 2026-05-07 02:46 | 30.35025 | -95.81412 | 9810 ft | 155 kts | 268° |
| 2026-05-07 02:46 | 30.35013 | -95.82663 | 9809 ft | 156 kts | 268° |
| 2026-05-07 02:46 | 30.35001 | -95.83920 | 9812 ft | 157 kts | 268° |
| 2026-05-07 02:47 | 30.34989 | -95.85191 | 9811 ft | 158 kts | 268° |
| 2026-05-07 02:47 | 30.34978 | -95.86463 | 9812 ft | 158 kts | 268° |
| 2026-05-07 02:47 | 30.34966 | -95.87743 | 9816 ft | 159 kts | 268° |
| 2026-05-07 02:47 | 30.34954 | -95.89024 | 9817 ft | 159 kts | 268° |
| 2026-05-07 02:48 | 30.34941 | -95.90305 | 9818 ft | 159 kts | 268° |
| 2026-05-07 02:48 | 30.34932 | -95.91154 | 9819 ft | 159 kts | 268° |
| 2026-05-07 02:48 | 30.34919 | -95.92439 | 9818 ft | 160 kts | 268° |
| 2026-05-07 02:48 | 30.34907 | -95.93726 | 9821 ft | 160 kts | 268° |
| 2026-05-07 02:49 | 30.34893 | -95.95017 | 9774 ft | 161 kts | 268° |
| 2026-05-07 02:49 | 30.34880 | -95.96313 | 9775 ft | 161 kts | 268° |
| 2026-05-07 02:49 | 30.34866 | -95.97611 | 9774 ft | 161 kts | 268° |
| 2026-05-07 02:49 | 30.34852 | -95.98925 | 9774 ft | 161 kts | 268° |
| 2026-05-07 02:50 | 30.34838 | -96.00226 | 9776 ft | 162 kts | 268° |
| 2026-05-07 02:50 | 30.34824 | -96.01512 | 9774 ft | 162 kts | 268° |
| 2026-05-07 02:50 | 30.34810 | -96.02816 | 9774 ft | 162 kts | 268° |
| 2026-05-07 02:50 | 30.34795 | -96.04116 | 9771 ft | 161 kts | 268° |
| 2026-05-07 02:51 | 30.34781 | -96.05416 | 9770 ft | 161 kts | 268° |
| 2026-05-07 02:51 | 30.34766 | -96.06712 | 9770 ft | 161 kts | 268° |
| 2026-05-07 02:51 | 30.34752 | -96.08008 | 9769 ft | 161 kts | 268° |
| 2026-05-07 02:51 | 30.34737 | -96.09303 | 9752 ft | 161 kts | 268° |
| 2026-05-07 02:52 | 30.34722 | -96.10597 | 9752 ft | 161 kts | 268° |
| 2026-05-07 02:52 | 30.34708 | -96.11884 | 9750 ft | 160 kts | 268° |
| 2026-05-07 02:52 | 30.34692 | -96.13171 | 9758 ft | 160 kts | 268° |
| 2026-05-07 02:52 | 30.34677 | -96.14465 | 9764 ft | 161 kts | 268° |
| 2026-05-07 02:53 | 30.34661 | -96.15767 | 9757 ft | 162 kts | 268° |
| 2026-05-07 02:53 | 30.34646 | -96.17065 | 9753 ft | 161 kts | 268° |
| 2026-05-07 02:53 | 30.34630 | -96.18357 | 9751 ft | 160 kts | 268° |
| 2026-05-07 02:53 | 30.34614 | -96.19649 | 9750 ft | 160 kts | 268° |
| 2026-05-07 02:54 | 30.34598 | -96.20937 | 9827 ft | 160 kts | 268° |
| 2026-05-07 02:54 | 30.34582 | -96.22225 | 9829 ft | 160 kts | 268° |
| 2026-05-07 02:54 | 30.34567 | -96.23511 | 9834 ft | 160 kts | 268° |
| 2026-05-07 02:54 | 30.34550 | -96.24796 | 9862 ft | 160 kts | 268° |
| 2026-05-07 02:55 | 30.34535 | -96.26081 | 9865 ft | 159 kts | 268° |
| 2026-05-07 02:55 | 30.34518 | -96.27364 | 9869 ft | 159 kts | 268° |
| 2026-05-07 02:55 | 30.34501 | -96.28648 | 9873 ft | 160 kts | 268° |
| 2026-05-07 02:55 | 30.34484 | -96.29933 | 9875 ft | 160 kts | 268° |
| 2026-05-07 02:56 | 30.34468 | -96.31217 | 9878 ft | 160 kts | 268° |
| 2026-05-07 02:56 | 30.34451 | -96.32500 | 9876 ft | 159 kts | 268° |
| 2026-05-07 02:56 | 30.34434 | -96.33781 | 9877 ft | 159 kts | 268° |
| 2026-05-07 02:56 | 30.34416 | -96.35064 | 9886 ft | 160 kts | 268° |
| 2026-05-07 02:57 | 30.34397 | -96.36353 | 9896 ft | 161 kts | 268° |
| 2026-05-07 02:57 | 30.34381 | -96.37652 | 9895 ft | 162 kts | 268° |
| 2026-05-07 02:57 | 30.34364 | -96.38959 | 9887 ft | 162 kts | 268° |
| 2026-05-07 02:57 | 30.34347 | -96.40261 | 9901 ft | 162 kts | 268° |
| 2026-05-07 02:58 | 30.34328 | -96.41557 | 9893 ft | 161 kts | 268° |
| 2026-05-07 02:58 | 30.34311 | -96.42848 | 9889 ft | 160 kts | 267° |
| 2026-05-07 02:58 | 30.34292 | -96.44131 | 9886 ft | 159 kts | 267° |
| 2026-05-07 02:58 | 30.34274 | -96.45412 | 9884 ft | 159 kts | 267° |
| 2026-05-07 02:59 | 30.34256 | -96.46691 | 9888 ft | 159 kts | 267° |
| 2026-05-07 02:59 | 30.34238 | -96.47970 | 9886 ft | 159 kts | 267° |
| 2026-05-07 02:59 | 30.34219 | -96.49250 | 9885 ft | 159 kts | 267° |
| 2026-05-07 02:59 | 30.34201 | -96.50534 | 9883 ft | 159 kts | 267° |
| 2026-05-07 03:00 | 30.34182 | -96.51816 | 9878 ft | 159 kts | 267° |
| 2026-05-07 03:00 | 30.34163 | -96.53098 | 9873 ft | 159 kts | 267° |
| 2026-05-07 03:00 | 30.34144 | -96.54380 | 9895 ft | 159 kts | 267° |
| 2026-05-07 03:00 | 30.34125 | -96.55660 | 9894 ft | 159 kts | 267° |
| 2026-05-07 03:01 | 30.34104 | -96.56942 | 9951 ft | 160 kts | 267° |
| 2026-05-07 03:01 | 30.34085 | -96.58229 | 9964 ft | 160 kts | 267° |
| 2026-05-07 03:01 | 30.34066 | -96.59522 | 9967 ft | 161 kts | 267° |
| 2026-05-07 03:01 | 30.34047 | -96.60820 | 9966 ft | 161 kts | 267° |
| 2026-05-07 03:02 | 30.34027 | -96.62114 | 9970 ft | 161 kts | 267° |
| 2026-05-07 03:02 | 30.34007 | -96.63412 | 9968 ft | 161 kts | 267° |
| 2026-05-07 03:02 | 30.33986 | -96.64709 | 9967 ft | 161 kts | 267° |
| 2026-05-07 03:02 | 30.33966 | -96.66006 | 9970 ft | 161 kts | 267° |
| 2026-05-07 03:03 | 30.33945 | -96.67306 | 9975 ft | 162 kts | 267° |
| 2026-05-07 03:03 | 30.33924 | -96.68608 | 9978 ft | 162 kts | 267° |
| 2026-05-07 03:03 | 30.33903 | -96.69915 | 9987 ft | 162 kts | 267° |
| 2026-05-07 03:03 | 30.33883 | -96.71220 | 9984 ft | 162 kts | 267° |
| 2026-05-07 03:04 | 30.33862 | -96.72526 | 9978 ft | 162 kts | 267° |
| 2026-05-07 03:04 | 30.33841 | -96.73829 | 9973 ft | 161 kts | 267° |
| 2026-05-07 03:04 | 30.33819 | -96.75126 | 9971 ft | 161 kts | 267° |
| 2026-05-07 03:04 | 30.33798 | -96.76422 | 9989 ft | 161 kts | 267° |
| 2026-05-07 03:05 | 30.33776 | -96.77714 | 9988 ft | 160 kts | 267° |
| 2026-05-07 03:05 | 30.33755 | -96.79003 | 9988 ft | 160 kts | 267° |
| 2026-05-07 03:05 | 30.33733 | -96.80294 | 9990 ft | 160 kts | 267° |
| 2026-05-07 03:05 | 30.33726 | -96.81583 | 9994 ft | 161 kts | 269° |
| 2026-05-07 03:06 | 30.33800 | -96.82877 | 9991 ft | 161 kts | 272° |
| 2026-05-07 03:06 | 30.33881 | -96.84173 | 9987 ft | 161 kts | 271° |
| 2026-05-07 03:06 | 30.33957 | -96.85465 | 9998 ft | 161 kts | 271° |
| 2026-05-07 03:06 | 30.34033 | -96.86757 | 9996 ft | 161 kts | 271° |
| 2026-05-07 03:07 | 30.34107 | -96.88045 | 9992 ft | 160 kts | 271° |
| 2026-05-07 03:07 | 30.34182 | -96.89329 | 9995 ft | 160 kts | 271° |
| 2026-05-07 03:07 | 30.34258 | -96.90613 | 9994 ft | 160 kts | 271° |
| 2026-05-07 03:07 | 30.34334 | -96.91898 | 9991 ft | 160 kts | 271° |
| 2026-05-07 03:08 | 30.34409 | -96.93181 | 9988 ft | 160 kts | 271° |
| 2026-05-07 03:08 | 30.34485 | -96.94464 | 9989 ft | 160 kts | 271° |
| 2026-05-07 03:08 | 30.34560 | -96.95744 | 9986 ft | 159 kts | 271° |
| 2026-05-07 03:08 | 30.34636 | -96.97023 | 9984 ft | 159 kts | 271° |
| 2026-05-07 03:09 | 30.34711 | -96.98300 | 9982 ft | 159 kts | 271° |
| 2026-05-07 03:09 | 30.34787 | -96.99578 | 9997 ft | 159 kts | 271° |
| 2026-05-07 03:09 | 30.34862 | -97.00854 | 9996 ft | 159 kts | 271° |
| 2026-05-07 03:09 | 30.34937 | -97.02128 | 9998 ft | 159 kts | 271° |
| 2026-05-07 03:10 | 30.35011 | -97.03405 | 9998 ft | 159 kts | 271° |
| 2026-05-07 03:10 | 30.35085 | -97.04682 | 10000 ft | 159 kts | 271° |
| 2026-05-07 03:10 | 30.35160 | -97.05962 | 10000 ft | 160 kts | 271° |
| 2026-05-07 03:10 | 30.35234 | -97.07244 | 9996 ft | 160 kts | 271° |
| 2026-05-07 03:11 | 30.35310 | -97.08525 | 9993 ft | 159 kts | 271° |
| 2026-05-07 03:11 | 30.35384 | -97.09802 | 9992 ft | 159 kts | 271° |
| 2026-05-07 03:11 | 30.35459 | -97.11077 | 9993 ft | 159 kts | 271° |
| 2026-05-07 03:11 | 30.35534 | -97.12351 | 9995 ft | 159 kts | 271° |
| 2026-05-07 03:12 | 30.35608 | -97.13625 | 9994 ft | 159 kts | 271° |
| 2026-05-07 03:12 | 30.35683 | -97.14901 | 10002 ft | 159 kts | 271° |
| 2026-05-07 03:12 | 30.35757 | -97.16179 | 10002 ft | 159 kts | 271° |
| 2026-05-07 03:12 | 30.35832 | -97.17457 | 10001 ft | 159 kts | 271° |
| 2026-05-07 03:13 | 30.35906 | -97.18719 | 10001 ft | 159 kts | 271° |
| 2026-05-07 03:13 | 30.35980 | -97.20015 | 10006 ft | 159 kts | 271° |
| 2026-05-07 03:13 | 30.36054 | -97.21281 | 10009 ft | 160 kts | 271° |
| 2026-05-07 03:13 | 30.36128 | -97.22566 | 10004 ft | 160 kts | 271° |
| 2026-05-07 03:14 | 30.36203 | -97.23867 | 10006 ft | 160 kts | 271° |
| 2026-05-07 03:14 | 30.36277 | -97.25152 | 10004 ft | 160 kts | 271° |
| 2026-05-07 03:14 | 30.36425 | -97.27721 | 10005 ft | 160 kts | 271° |
| 2026-05-07 03:15 | 30.36499 | -97.29005 | 10000 ft | 160 kts | 271° |
| 2026-05-07 03:15 | 30.36572 | -97.30289 | 10011 ft | 160 kts | 271° |
| 2026-05-07 03:15 | 30.36646 | -97.31570 | 10012 ft | 159 kts | 271° |
| 2026-05-07 03:15 | 30.36718 | -97.32835 | 10012 ft | 159 kts | 271° |
| 2026-05-07 03:16 | 30.36792 | -97.34130 | 10007 ft | 159 kts | 271° |
| 2026-05-07 03:16 | 30.36864 | -97.35390 | 10007 ft | 159 kts | 271° |
| 2026-05-07 03:16 | 30.36937 | -97.36682 | 10007 ft | 159 kts | 271° |
| 2026-05-07 03:16 | 30.37008 | -97.37943 | 10008 ft | 159 kts | 271° |
| 2026-05-07 03:17 | 30.37080 | -97.39217 | 10009 ft | 159 kts | 271° |
| 2026-05-07 03:17 | 30.37152 | -97.40494 | 10009 ft | 159 kts | 271° |
| 2026-05-07 03:17 | 30.37225 | -97.41773 | 10009 ft | 159 kts | 271° |
| 2026-05-07 03:17 | 30.37297 | -97.43049 | 10010 ft | 159 kts | 271° |
| 2026-05-07 03:18 | 30.37369 | -97.44328 | 10011 ft | 159 kts | 271° |
| 2026-05-07 03:18 | 30.37441 | -97.45605 | 10011 ft | 159 kts | 271° |
| 2026-05-07 03:18 | 30.37513 | -97.46884 | 10011 ft | 159 kts | 271° |
| 2026-05-07 03:18 | 30.37585 | -97.48164 | 10012 ft | 159 kts | 271° |
| 2026-05-07 03:19 | 30.37656 | -97.49443 | 10011 ft | 159 kts | 271° |
| 2026-05-07 03:19 | 30.37727 | -97.50727 | 10009 ft | 159 kts | 271° |
| 2026-05-07 03:19 | 30.37798 | -97.52007 | 10009 ft | 159 kts | 271° |
| 2026-05-07 03:19 | 30.38013 | -97.53266 | 10010 ft | 163 kts | 288° |
| 2026-05-07 03:20 | 30.38533 | -97.54439 | 10012 ft | 165 kts | 294° |
| 2026-05-07 03:20 | 30.39105 | -97.55592 | 10012 ft | 165 kts | 294° |
| 2026-05-07 03:20 | 30.39671 | -97.56747 | 10011 ft | 165 kts | 294° |
| 2026-05-07 03:20 | 30.40226 | -97.57910 | 10010 ft | 165 kts | 293° |
| 2026-05-07 03:21 | 30.40772 | -97.59078 | 10031 ft | 165 kts | 293° |
| 2026-05-07 03:21 | 30.41312 | -97.60242 | 10037 ft | 164 kts | 293° |
| 2026-05-07 03:21 | 30.41846 | -97.61404 | 10035 ft | 163 kts | 293° |
| 2026-05-07 03:21 | 30.42377 | -97.62561 | 10035 ft | 162 kts | 292° |
| 2026-05-07 03:22 | 30.42899 | -97.63699 | 10031 ft | 162 kts | 293° |
| 2026-05-07 03:22 | 30.43432 | -97.64862 | 10031 ft | 162 kts | 292° |
| 2026-05-07 03:22 | 30.43959 | -97.66013 | 10031 ft | 162 kts | 292° |
| 2026-05-07 03:22 | 30.44478 | -97.67146 | 10022 ft | 162 kts | 292° |
| 2026-05-07 03:23 | 30.45004 | -97.68283 | 9928 ft | 157 kts | 293° |
| 2026-05-07 03:23 | 30.45516 | -97.69393 | 9742 ft | 157 kts | 293° |
| 2026-05-07 03:23 | 30.46029 | -97.70518 | 9486 ft | 159 kts | 293° |
| 2026-05-07 03:23 | 30.46546 | -97.71652 | 9236 ft | 160 kts | 293° |
| 2026-05-07 03:24 | 30.47066 | -97.72794 | 8986 ft | 160 kts | 294° |
| 2026-05-07 03:24 | 30.47589 | -97.73937 | 8736 ft | 161 kts | 294° |
| 2026-05-07 03:24 | 30.48112 | -97.75083 | 8480 ft | 160 kts | 294° |
| 2026-05-07 03:24 | 30.48633 | -97.76222 | 8227 ft | 160 kts | 294° |
| 2026-05-07 03:25 | 30.49151 | -97.77357 | 7992 ft | 158 kts | 295° |
| 2026-05-07 03:25 | 30.49665 | -97.78480 | 7773 ft | 156 kts | 294° |
| 2026-05-07 03:25 | 30.50170 | -97.79587 | 7553 ft | 155 kts | 295° |
| 2026-05-07 03:25 | 30.50675 | -97.80700 | 7343 ft | 157 kts | 295° |
| 2026-05-07 03:26 | 30.51189 | -97.81823 | 7136 ft | 158 kts | 295° |
| 2026-05-07 03:26 | 30.51704 | -97.82952 | 6923 ft | 158 kts | 295° |
| 2026-05-07 03:26 | 30.52218 | -97.84077 | 6711 ft | 158 kts | 296° |
| 2026-05-07 03:26 | 30.52733 | -97.85207 | 6499 ft | 159 kts | 296° |
| 2026-05-07 03:27 | 30.53250 | -97.86341 | 6280 ft | 159 kts | 296° |
| 2026-05-07 03:27 | 30.53767 | -97.87472 | 6060 ft | 158 kts | 296° |
| 2026-05-07 03:27 | 30.54283 | -97.88609 | 5823 ft | 160 kts | 296° |
| 2026-05-07 03:27 | 30.54629 | -97.89366 | 5651 ft | 161 kts | 296° |
| 2026-05-07 03:28 | 30.55152 | -97.90513 | 5386 ft | 161 kts | 296° |
| 2026-05-07 03:28 | 30.55673 | -97.91657 | 5142 ft | 160 kts | 296° |
| 2026-05-07 03:28 | 30.56188 | -97.92789 | 4922 ft | 158 kts | 296° |
| 2026-05-07 03:28 | 30.56610 | -97.93955 | 4707 ft | 157 kts | 281° |
| 2026-05-07 03:29 | 30.56539 | -97.95211 | 4481 ft | 158 kts | 256° |
| 2026-05-07 03:29 | 30.56284 | -97.96447 | 4258 ft | 157 kts | 262° |
| 2026-05-07 03:29 | 30.56090 | -97.97691 | 4041 ft | 157 kts | 263° |
| 2026-05-07 03:29 | 30.55893 | -97.98943 | 3832 ft | 158 kts | 262° |
| 2026-05-07 03:30 | 30.55686 | -98.00203 | 3616 ft | 160 kts | 262° |
| 2026-05-07 03:30 | 30.55467 | -98.01461 | 3395 ft | 159 kts | 258° |
| 2026-05-07 03:30 | 30.54937 | -98.02578 | 3182 ft | 161 kts | 230° |
| 2026-05-07 03:30 | 30.53989 | -98.03278 | 2972 ft | 165 kts | 200° |
| 2026-05-07 03:31 | 30.52858 | -98.03365 | 2821 ft | 163 kts | 168° |
| 2026-05-07 03:31 | 30.51778 | -98.03078 | 2804 ft | 156 kts | 170° |
| 2026-05-07 03:31 | 30.50733 | -98.02875 | 2780 ft | 149 kts | 170° |
| 2026-05-07 03:31 | 30.49735 | -98.02660 | 2780 ft | 143 kts | 169° |
| 2026-05-07 03:32 | 30.48763 | -98.02432 | 2782 ft | 144 kts | 168° |
| 2026-05-07 03:32 | 30.47777 | -98.02200 | 2777 ft | 144 kts | 169° |
| 2026-05-07 03:32 | 30.46795 | -98.01975 | 2780 ft | 144 kts | 169° |
| 2026-05-07 03:32 | 30.45810 | -98.01750 | 2770 ft | 144 kts | 168° |
| 2026-05-07 03:33 | 30.44801 | -98.01519 | 2602 ft | 151 kts | 169° |
| 2026-05-07 03:33 | 30.43754 | -98.01283 | 2409 ft | 155 kts | 169° |
| 2026-05-07 03:33 | 30.42695 | -98.01038 | 2197 ft | 153 kts | 168° |
| 2026-05-07 03:33 | 30.41674 | -98.00826 | 2044 ft | 145 kts | 174° |
| 2026-05-07 03:34 | 30.40691 | -98.00769 | 1981 ft | 138 kts | 180° |
| 2026-05-07 03:34 | 30.39752 | -98.00764 | 1938 ft | 132 kts | 178° |
| 2026-05-07 03:34 | 30.38854 | -98.00744 | 1932 ft | 128 kts | 177° |
| 2026-05-07 03:34 | 30.37969 | -98.00693 | 1920 ft | 127 kts | 175° |
| 2026-05-07 03:35 | 30.37136 | -98.00610 | 1881 ft | 115 kts | 173° |
| 2026-05-07 03:35 | 30.36353 | -98.00519 | 1801 ft | 111 kts | 174° |
| 2026-05-07 03:35 | 30.35592 | -98.00419 | 1806 ft | 109 kts | 171° |
| 2026-05-07 03:35 | 30.34840 | -98.00298 | 1768 ft | 108 kts | 169° |
| 2026-05-07 03:36 | 30.34102 | -98.00125 | 1699 ft | 108 kts | 164° |
| 2026-05-07 03:36 | 30.33401 | -97.99850 | 1602 ft | 105 kts | 135° |
| 2026-05-07 03:36 | 30.33240 | -97.99136 | 1504 ft | 91 kts | 65° |
| 2026-05-07 03:36 | 30.33675 | -97.98804 | 1410 ft | 78 kts | 340° |
| 2026-05-07 03:37 | 30.34217 | -97.99068 | 1194 ft | 87 kts | 346° |
| 2026-05-07 03:37 | 30.34789 | -97.99229 | 1060 ft | 84 kts | 350° |
| 2026-05-07 03:37 | 30.35363 | -97.99360 | 934 ft | 81 kts | 348° |
| 2026-05-07 03:37 | 30.35802 | -97.99459 | 910 ft | 41 kts | 349° |
| 2026-05-07 03:38 | 30.35908 | -97.99491 | 905 ft | 7 kts | 334° |
| 2026-05-07 03:38 | 30.35921 | -97.99488 | 904 ft | 2 kts | 73° |
| 2026-05-07 03:38 | 30.35907 | -97.99480 | 905 ft | 5 kts | 170° |
| 2026-05-07 03:38 | 30.35869 | -97.99465 | 907 ft | 4 kts | 134° |
| 2026-05-07 03:39 | 30.35872 | -97.99436 | 907 ft | 2 kts | 109° |
| 2026-05-07 03:39 | 30.35865 | -97.99433 | 908 ft | 0 kts | 204° |
| 2026-05-07 03:39 | 30.35863 | -97.99437 | 908 ft | 0 kts | 268° |